Time;durP1;ratioP1;P1;durP2;ratioP2;P2;SDS_P1;SDS_P2;PMS_P1;PMS_P2;Temp;Humidity;BMP_temperature;BMP_pressure;BME280_temperature;BME280_humidity;BME280_pressure;Samples;Min_cycle;Max_cycle;Signal;HPM_P1;HPM_P2
2021/08/13 00:00:00;;;;;;;5.33;4.83;;;;;;;20.25;100.00;96941.88;5073031;28;20229;-84
2021/08/13 00:02:28;;;;;;;5.57;5.17;;;;;;;20.37;100.00;96945.59;5073234;28;20193;-86
2021/08/13 00:04:57;;;;;;;6.30;5.77;;;;;;;20.29;100.00;96935.09;5073194;28;20203;-86
2021/08/13 00:07:24;;;;;;;6.27;5.67;;;;;;;20.28;100.00;96938.78;5073419;28;20201;-86
2021/08/13 00:09:51;;;;;;;6.07;5.20;;;;;;;20.08;100.00;96930.75;5073133;28;20189;-86
2021/08/13 00:12:18;;;;;;;6.70;5.83;;;;;;;19.93;100.00;96944.25;5072938;28;20203;-85
2021/08/13 00:14:46;;;;;;;5.63;5.17;;;;;;;19.98;100.00;96935.66;5072853;28;20675;-86
2021/08/13 00:17:13;;;;;;;6.40;5.83;;;;;;;19.99;100.00;96937.31;5072613;28;20199;-86
2021/08/13 00:19:40;;;;;;;7.30;5.97;;;;;;;20.19;100.00;96940.81;5073279;28;20216;-86
2021/08/13 00:22:09;;;;;;;5.97;5.23;;;;;;;20.07;100.00;96948.59;5073175;28;20302;-86
2021/08/13 00:24:36;;;;;;;5.53;4.97;;;;;;;20.17;100.00;96943.69;5072852;28;20189;-86
2021/08/13 00:27:03;;;;;;;4.93;4.53;;;;;;;20.27;100.00;96937.16;5072718;28;20209;-86
2021/08/13 00:29:31;;;;;;;6.83;4.63;;;;;;;20.20;100.00;96937.16;5072895;28;20573;-84
2021/08/13 00:31:58;;;;;;;5.63;5.13;;;;;;;19.98;100.00;96948.97;5072681;28;20205;-86
2021/08/13 00:34:25;;;;;;;5.30;4.70;;;;;;;19.96;100.00;96938.53;5072640;28;20204;-86
2021/08/13 00:36:52;;;;;;;6.47;5.87;;;;;;;19.98;100.00;96933.78;5072540;28;20870;-86
2021/08/13 00:39:21;;;;;;;7.20;6.10;;;;;;;19.73;100.00;96938.03;5073009;28;20225;-86
2021/08/13 00:41:48;;;;;;;7.77;5.67;;;;;;;19.59;100.00;96940.63;5072167;28;20200;-84
2021/08/13 00:44:15;;;;;;;5.67;5.10;;;;;;;19.72;100.00;96937.22;5072251;28;20696;-85
2021/08/13 00:46:43;;;;;;;5.43;5.03;;;;;;;19.90;100.00;96929.47;5071585;28;20201;-85
2021/08/13 00:49:10;;;;;;;7.40;5.00;;;;;;;19.88;100.00;96933.34;5072902;28;20584;-85
2021/08/13 00:51:37;;;;;;;5.83;5.10;;;;;;;19.77;100.00;96928.59;5072836;28;20204;-86
2021/08/13 00:54:05;;;;;;;7.77;5.00;;;;;;;19.83;100.00;96933.16;5072276;28;20244;-86
2021/08/13 00:56:34;;;;;;;5.73;5.10;;;;;;;19.75;100.00;96933.34;5072279;28;20197;-85
2021/08/13 00:59:03;;;;;;;5.03;4.57;;;;;;;19.91;100.00;96930.28;5072415;28;20216;-86
2021/08/13 01:01:31;;;;;;;5.90;5.23;;;;;;;19.82;100.00;96929.66;5072501;28;20189;-86
2021/08/13 01:03:59;;;;;;;7.90;5.33;;;;;;;19.65;100.00;96942.53;5072260;28;20201;-86
2021/08/13 01:06:26;;;;;;;5.97;5.37;;;;;;;19.73;100.00;96935.38;5072192;28;20196;-86
2021/08/13 01:08:53;;;;;;;6.47;5.87;;;;;;;19.67;100.00;96932.50;5072194;28;20197;-86
2021/08/13 01:11:32;;;;;;;6.13;5.53;;;;;;;19.64;100.00;96932.91;5072571;28;20296;-84
2021/08/13 01:14:08;;;;;;;8.10;5.93;;;;;;;19.82;100.00;96931.50;5072338;28;20207;-86
2021/08/13 01:16:39;;;;;;;6.60;5.90;;;;;;;19.70;100.00;96933.91;5072433;28;20223;-86
2021/08/13 01:19:12;;;;;;;6.87;6.17;;;;;;;19.80;100.00;96939.69;5072662;28;20693;-86
2021/08/13 01:21:46;;;;;;;5.17;4.77;;;;;;;19.79;100.00;96937.25;5072208;28;20634;-84
2021/08/13 01:24:17;;;;;;;6.37;5.70;;;;;;;19.55;100.00;96931.38;5072048;28;20189;-85
2021/08/13 01:26:50;;;;;;;8.67;5.80;;;;;;;19.49;100.00;96930.31;5072178;28;20192;-86
2021/08/13 01:29:26;;;;;;;6.00;5.40;;;;;;;19.46;100.00;96929.88;5072101;28;20192;-86
2021/08/13 01:32:08;;;;;;;6.30;5.80;;;;;;;19.38;100.00;96930.88;5071926;28;20181;-86
2021/08/13 01:34:40;;;;;;;7.43;5.57;;;;;;;19.21;100.00;96926.91;5072145;28;20577;-86
2021/08/13 01:37:08;;;;;;;12.40;5.83;;;;;;;19.33;100.00;96928.00;5072276;28;20259;-86
2021/08/13 01:39:37;;;;;;;8.53;6.37;;;;;;;19.48;100.00;96927.88;5072103;28;20232;-86
2021/08/13 01:42:06;;;;;;;6.83;6.30;;;;;;;19.44;100.00;96935.44;5072238;28;20272;-86
2021/08/13 01:44:34;;;;;;;6.17;5.67;;;;;;;19.42;100.00;96941.97;5072100;28;20197;-86
2021/08/13 01:47:02;;;;;;;6.23;5.70;;;;;;;19.31;100.00;96937.22;5071753;28;20189;-86
2021/08/13 01:49:31;;;;;;;6.50;5.90;;;;;;;19.41;100.00;96937.69;5071916;28;20204;-86
2021/08/13 01:52:02;;;;;;;8.20;6.40;;;;;;;19.42;100.00;96941.97;5071706;28;20672;-85
2021/08/13 01:54:31;;;;;;;6.13;5.63;;;;;;;19.26;100.00;96943.13;5071776;28;20316;-86
2021/08/13 01:56:59;;;;;;;6.20;5.70;;;;;;;19.19;100.00;96942.28;5072306;28;20220;-86
2021/08/13 01:59:26;;;;;;;7.83;6.30;;;;;;;19.24;100.00;96943.31;5075530;28;20232;-86
2021/08/13 02:01:54;;;;;;;6.07;5.57;;;;;;;19.29;100.00;96941.91;5075947;28;20192;-86
2021/08/13 02:04:21;;;;;;;6.37;5.73;;;;;;;19.34;100.00;96934.16;5075540;28;20685;-86
2021/08/13 02:06:49;;;;;;;5.60;5.10;;;;;;;19.22;100.00;96942.72;5075907;28;20280;-86
2021/08/13 02:09:20;;;;;;;6.20;5.70;;;;;;;19.16;100.00;96943.50;5075417;28;20208;-86
2021/08/13 02:11:47;;;;;;;6.07;5.57;;;;;;;19.14;100.00;96942.84;5075795;28;20227;-86
2021/08/13 02:14:16;;;;;;;8.63;5.80;;;;;;;19.17;100.00;96939.81;5075090;28;20190;-84
2021/08/13 02:16:49;;;;;;;12.23;6.43;;;;;;;19.15;100.00;96938.34;5075526;28;20193;-85
2021/08/13 02:19:25;;;;;;;7.20;6.50;;;;;;;19.19;100.00;96947.63;5075831;28;20219;-87
2021/08/13 02:21:53;;;;;;;7.20;6.40;;;;;;;18.92;100.00;96949.28;5075486;28;20574;-86
2021/08/13 02:24:22;;;;;;;6.83;6.23;;;;;;;19.07;100.00;96955.31;5075838;28;20585;-86
2021/08/13 02:26:50;;;;;;;6.37;5.87;;;;;;;19.00;100.00;96957.13;5075163;28;20726;-86
2021/08/13 02:29:17;;;;;;;6.13;5.53;;;;;;;18.98;100.00;96953.81;5075540;28;20197;-86
2021/08/13 02:31:44;;;;;;;6.57;5.97;;;;;;;19.10;100.00;96954.09;5075617;28;20204;-86
2021/08/13 02:34:12;;;;;;;7.10;6.37;;;;;;;19.01;100.00;96956.91;5075285;28;20204;-86
2021/08/13 02:36:45;;;;;;;6.57;5.97;;;;;;;18.92;100.00;96963.41;5075035;28;20685;-86
2021/08/13 02:39:17;;;;;;;6.57;5.97;;;;;;;18.91;100.00;96961.78;5074752;28;20699;-84
2021/08/13 02:41:48;;;;;;;7.67;6.60;;;;;;;18.90;100.00;96962.78;5075272;28;20572;-86
2021/08/13 02:44:16;;;;;;;7.53;6.77;;;;;;;18.79;100.00;96967.81;5075248;28;20185;-86
2021/08/13 02:46:51;;;;;;;7.60;6.13;;;;;;;18.75;100.00;96965.53;5074507;28;20203;-85
2021/08/13 02:49:21;;;;;;;8.13;7.03;;;;;;;18.98;100.00;96967.13;5074772;28;20271;-86
2021/08/13 02:51:53;;;;;;;11.20;5.90;;;;;;;18.95;100.00;96981.69;5074916;28;20198;-87
2021/08/13 02:54:25;;;;;;;6.13;5.53;;;;;;;18.95;100.00;96964.88;5074979;28;20653;-86
2021/08/13 02:56:55;;;;;;;7.37;6.67;;;;;;;18.87;100.00;96973.00;5075450;28;20221;-87
2021/08/13 02:59:23;;;;;;;7.40;6.67;;;;;;;18.86;100.00;96969.50;5075047;28;20591;-86
2021/08/13 03:01:52;;;;;;;8.03;7.23;;;;;;;18.98;100.00;96969.78;5074649;28;20288;-87
2021/08/13 03:04:22;;;;;;;11.93;7.07;;;;;;;18.99;100.00;96968.78;5074871;28;20201;-86
2021/08/13 03:06:51;;;;;;;9.43;6.63;;;;;;;19.02;100.00;96968.41;5074645;28;20224;-86
2021/08/13 03:09:19;;;;;;;7.33;6.63;;;;;;;18.86;100.00;96979.34;5074041;28;20201;-86
2021/08/13 03:11:47;;;;;;;6.77;6.17;;;;;;;18.76;100.00;96977.00;5074520;28;20200;-86
2021/08/13 03:14:17;;;;;;;7.57;6.87;;;;;;;18.80;100.00;96977.44;5074648;28;20197;-85
2021/08/13 03:16:45;;;;;;;7.40;6.70;;;;;;;18.62;100.00;96977.88;5074776;28;20590;-86
2021/08/13 03:19:12;;;;;;;8.53;7.40;;;;;;;18.64;100.00;96974.03;5074323;28;20221;-86
2021/08/13 03:21:40;;;;;;;7.90;7.10;;;;;;;18.50;100.00;96959.78;5074380;28;20197;-84
2021/08/13 03:24:08;;;;;;;12.93;7.20;;;;;;;18.37;100.00;96964.16;5081043;28;20287;-87
2021/08/13 03:26:35;;;;;;;6.27;5.77;;;;;;;18.69;100.00;96955.63;5094893;28;20203;-88
2021/08/13 03:29:03;;;;;;;7.07;6.40;;;;;;;18.56;100.00;96960.84;5094580;28;20260;-87
2021/08/13 03:31:39;;;;;;;7.67;6.30;;;;;;;18.67;100.00;96952.34;5094199;28;20202;-86
2021/08/13 03:34:09;;;;;;;6.33;5.60;;;;;;;18.72;100.00;96957.13;5093730;28;20181;-86
2021/08/13 03:36:37;;;;;;;7.93;6.33;;;;;;;18.63;100.00;96959.03;5094322;28;20673;-86
2021/08/13 03:39:04;;;;;;;7.27;6.67;;;;;;;18.52;100.00;96957.72;5094166;28;20575;-85
2021/08/13 03:41:31;;;;;;;7.03;6.43;;;;;;;18.66;100.00;96961.31;5093502;28;20290;-82
2021/08/13 03:43:59;;;;;;;6.70;6.00;;;;;;;18.62;100.00;96962.72;5093484;28;20196;-81
2021/08/13 03:46:26;;;;;;;11.77;7.13;;;;;;;18.70;100.00;96959.94;5093582;28;20287;-82
2021/08/13 03:48:55;;;;;;;6.27;5.77;;;;;;;18.75;100.00;96962.88;5093322;28;20235;-82
2021/08/13 03:51:22;;;;;;;7.53;6.53;;;;;;;18.82;100.00;96967.44;5093338;28;20200;-82
2021/08/13 03:53:49;;;;;;;8.17;7.07;;;;;;;18.65;100.00;96969.53;5092654;28;20686;-82
2021/08/13 03:56:16;;;;;;;8.90;6.73;;;;;;;18.84;100.00;96970.72;5093328;28;20200;-82
2021/08/13 03:58:43;;;;;;;7.37;6.70;;;;;;;18.81;100.00;96965.78;5093082;28;20711;-82
2021/08/13 04:01:11;;;;;;;8.03;7.37;;;;;;;18.88;100.00;96970.16;5093115;28;20220;-82
2021/08/13 04:03:38;;;;;;;7.40;6.70;;;;;;;18.89;100.00;96973.63;5093167;28;20639;-80
2021/08/13 04:06:06;;;;;;;8.97;7.40;;;;;;;18.83;100.00;96977.06;5093327;28;20204;-82
2021/08/13 04:08:34;;;;;;;7.03;6.43;;;;;;;18.91;100.00;96966.25;5092942;28;20238;-82
2021/08/13 04:11:01;;;;;;;7.03;6.43;;;;;;;19.03;100.00;96975.38;5092994;28;20704;-82
2021/08/13 04:13:28;;;;;;;8.47;6.90;;;;;;;18.98;100.00;96973.31;5092530;28;20743;-83
2021/08/13 04:15:55;;;;;;;7.50;6.80;;;;;;;18.75;100.00;96976.19;5093241;28;20215;-82
2021/08/13 04:18:23;;;;;;;7.10;6.50;;;;;;;18.90;100.00;96984.09;5092843;28;20283;-82
2021/08/13 04:20:50;;;;;;;8.27;7.57;;;;;;;18.90;100.00;96985.94;5092062;28;20222;-81
2021/08/13 04:23:19;;;;;;;7.37;6.67;;;;;;;19.00;100.00;96978.41;5093069;28;20203;-83
2021/08/13 04:25:46;;;;;;;7.70;7.00;;;;;;;19.05;100.00;96972.50;5092660;28;20192;-81
2021/08/13 04:28:15;;;;;;;6.97;6.47;;;;;;;19.06;100.00;96977.66;5092833;28;20302;-82
2021/08/13 04:30:42;;;;;;;6.53;5.93;;;;;;;19.10;100.00;96970.91;5092440;28;20192;-82
2021/08/13 04:33:09;;;;;;;6.67;6.07;;;;;;;19.17;100.00;96971.78;5092518;28;20200;-82
2021/08/13 04:35:37;;;;;;;7.20;6.63;;;;;;;19.28;100.00;96969.59;5092876;28;20628;-83
2021/08/13 04:38:06;;;;;;;8.73;7.07;;;;;;;19.19;100.00;96972.41;5092690;28;20281;-83
2021/08/13 04:40:35;;;;;;;7.67;6.53;;;;;;;19.19;100.00;96977.75;5092525;28;20220;-82
2021/08/13 04:43:03;;;;;;;8.37;7.53;;;;;;;19.42;100.00;96982.78;5092441;28;20196;-82
2021/08/13 04:45:30;;;;;;;7.63;6.93;;;;;;;19.55;100.00;96978.56;5092369;28;20200;-83
2021/08/13 04:47:57;;;;;;;7.13;6.50;;;;;;;19.45;100.00;96978.91;5092407;28;20196;-83
2021/08/13 04:50:25;;;;;;;9.37;6.63;;;;;;;19.41;100.00;96983.00;5092424;28;20638;-82
2021/08/13 04:52:52;;;;;;;7.27;6.67;;;;;;;19.22;100.00;96988.03;5092571;28;20189;-81
2021/08/13 04:55:21;;;;;;;9.57;8.10;;;;;;;19.28;100.00;96997.06;5092216;28;20211;-82
2021/08/13 04:57:50;;;;;;;9.97;6.67;;;;;;;19.53;100.00;96999.25;5092028;28;20202;-82
2021/08/13 05:00:18;;;;;;;8.67;7.57;;;;;;;19.52;100.00;97006.41;5092097;28;20311;-83
2021/08/13 05:02:46;;;;;;;10.20;8.33;;;;;;;19.59;100.00;97007.28;5091782;28;20198;-83
2021/08/13 05:05:14;;;;;;;8.53;7.63;;;;;;;19.69;100.00;97004.28;5092076;28;20196;-82
2021/08/13 05:07:41;;;;;;;10.97;7.43;;;;;;;19.71;100.00;97013.75;5091885;28;20196;-82
2021/08/13 05:10:10;;;;;;;11.73;6.67;;;;;;;19.81;100.00;97015.19;5092078;28;20211;-82
2021/08/13 05:12:38;;;;;;;9.20;8.23;;;;;;;19.89;100.00;97023.06;5091846;28;20246;-82
2021/08/13 05:15:09;;;;;;;7.73;7.03;;;;;;;19.97;100.00;97027.38;5091989;28;20193;-82
2021/08/13 05:17:37;;;;;;;8.57;7.87;;;;;;;20.04;100.00;97026.38;5092152;28;20184;-82
2021/08/13 05:20:05;;;;;;;8.50;7.63;;;;;;;20.13;100.00;97030.53;5092196;28;20220;-82
2021/08/13 05:22:34;;;;;;;8.10;6.90;;;;;;;20.24;100.00;97026.47;5091772;28;20197;-82
2021/08/13 05:25:02;;;;;;;8.13;7.33;;;;;;;20.39;100.00;97028.97;5091942;28;20202;-82
2021/08/13 05:27:30;;;;;;;8.60;7.80;;;;;;;20.40;100.00;97033.25;5091724;28;20287;-82
2021/08/13 05:29:57;;;;;;;9.13;8.23;;;;;;;20.42;100.00;97029.38;5092208;28;20200;-83
2021/08/13 05:32:27;;;;;;;8.47;7.77;;;;;;;20.49;100.00;97036.59;5094245;28;20586;-82
2021/08/13 05:34:54;;;;;;;9.13;8.37;;;;;;;20.53;100.00;97045.84;5095805;28;20192;-82
2021/08/13 05:37:21;;;;;;;9.70;8.00;;;;;;;20.72;100.00;97033.59;5096183;28;20200;-82
2021/08/13 05:39:48;;;;;;;16.53;9.57;;;;;;;20.78;100.00;97019.38;5096079;28;20230;-82
2021/08/13 05:42:15;;;;;;;8.90;8.13;;;;;;;20.94;100.00;97035.03;5096197;28;20328;-82
2021/08/13 05:44:43;;;;;;;8.70;7.90;;;;;;;21.09;100.00;97029.47;5096106;28;20578;-82
2021/08/13 05:47:10;;;;;;;8.23;7.40;;;;;;;21.28;100.00;97031.31;5095372;28;20225;-82
2021/08/13 05:49:38;;;;;;;8.70;8.00;;;;;;;21.46;100.00;97029.88;5095745;28;20202;-82
2021/08/13 05:52:06;;;;;;;11.60;8.27;;;;;;;21.58;100.00;97039.72;5095515;28;20287;-82
2021/08/13 05:54:33;;;;;;;7.93;7.33;;;;;;;21.62;100.00;97037.47;5095465;28;20258;-80
2021/08/13 05:57:01;;;;;;;8.37;7.67;;;;;;;21.83;100.00;97042.53;5095163;28;20199;-82
2021/08/13 05:59:28;;;;;;;8.07;7.27;;;;;;;21.85;100.00;97056.50;5095840;28;20200;-82
2021/08/13 06:01:55;;;;;;;7.90;7.20;;;;;;;21.99;100.00;97064.50;5095544;28;20285;-82
2021/08/13 06:04:22;;;;;;;8.67;7.87;;;;;;;22.15;100.00;97063.25;5095898;28;20200;-82
2021/08/13 06:06:51;;;;;;;8.20;7.40;;;;;;;22.35;100.00;97055.94;5095267;28;20192;-80
2021/08/13 06:09:18;;;;;;;8.67;7.73;;;;;;;22.52;100.00;97064.31;5095339;28;20207;-81
2021/08/13 06:11:45;;;;;;;7.63;6.90;;;;;;;22.67;100.00;97064.81;5095175;28;20192;-82
2021/08/13 06:14:12;;;;;;;8.07;7.47;;;;;;;22.88;100.00;97070.88;5095471;28;20202;-82
2021/08/13 06:16:40;;;;;;;8.13;7.40;;;;;;;22.96;100.00;97074.13;5095329;28;20580;-82
2021/08/13 06:19:07;;;;;;;7.67;7.07;;;;;;;23.00;100.00;97074.56;5095419;28;20199;-80
2021/08/13 06:21:34;;;;;;;6.93;6.33;;;;;;;23.19;100.00;97070.88;5095333;28;20238;-82
2021/08/13 06:24:03;;;;;;;7.60;6.27;;;;;;;23.31;100.00;97076.38;5094904;28;20279;-82
2021/08/13 06:26:30;;;;;;;7.00;6.40;;;;;;;23.30;100.00;97076.56;5094802;28;20676;-82
2021/08/13 06:28:57;;;;;;;7.40;6.60;;;;;;;23.53;100.00;97079.47;5095096;28;20254;-82
2021/08/13 06:31:25;;;;;;;6.23;5.63;;;;;;;23.67;100.00;97096.25;5094974;28;20287;-82
2021/08/13 06:33:52;;;;;;;6.93;6.33;;;;;;;23.75;100.00;97097.84;5094816;28;20196;-82
2021/08/13 06:36:19;;;;;;;8.87;7.33;;;;;;;23.92;100.00;97093.53;5095131;28;20199;-83
2021/08/13 06:38:47;;;;;;;7.10;6.50;;;;;;;24.03;100.00;97102.72;5094684;28;20628;-82
2021/08/13 06:41:15;;;;;;;6.80;6.20;;;;;;;24.32;100.00;97101.97;5094568;28;20570;-82
2021/08/13 06:43:43;;;;;;;6.83;6.20;;;;;;;24.51;100.00;97102.78;5093607;28;20196;-82
2021/08/13 06:46:10;;;;;;;6.93;6.23;;;;;;;24.73;100.00;97105.81;5094673;28;20196;-82
2021/08/13 06:48:37;;;;;;;7.17;6.43;;;;;;;24.56;100.00;97107.47;5094429;28;20200;-82
2021/08/13 06:51:04;;;;;;;6.53;5.93;;;;;;;24.53;100.00;97102.56;5094572;28;20607;-82
2021/08/13 06:53:32;;;;;;;5.93;5.43;;;;;;;24.72;100.00;97106.84;5093899;28;20318;-82
2021/08/13 06:55:59;;;;;;;6.67;5.60;;;;;;;24.75;100.00;97119.03;5094553;28;20192;-81
2021/08/13 06:58:28;;;;;;;6.57;6.07;;;;;;;24.73;100.00;97113.88;5094253;28;20196;-83
2021/08/13 07:00:55;;;;;;;7.03;6.33;;;;;;;24.88;100.00;97125.03;5094339;28;20710;-83
2021/08/13 07:03:22;;;;;;;13.03;7.27;;;;;;;24.90;100.00;97125.63;5093938;28;20746;-82
2021/08/13 07:05:49;;;;;;;7.53;6.37;;;;;;;25.14;100.00;97133.78;5094304;28;20200;-82
2021/08/13 07:08:16;;;;;;;6.60;6.00;;;;;;;25.30;100.00;97132.31;5094389;28;20192;-82
2021/08/13 07:10:44;;;;;;;7.67;6.27;;;;;;;25.40;100.00;97129.88;5094498;28;20192;-83
2021/08/13 07:13:11;;;;;;;6.37;5.83;;;;;;;25.68;100.00;97129.19;5093888;28;20192;-82
2021/08/13 07:15:39;;;;;;;6.60;6.00;;;;;;;25.69;100.00;97124.63;5093889;28;20196;-83
2021/08/13 07:18:07;;;;;;;6.27;5.77;;;;;;;25.78;100.00;97134.81;5093915;28;20603;-82
2021/08/13 07:20:34;;;;;;;7.37;6.67;;;;;;;26.08;100.00;97131.19;5094011;28;20226;-83
2021/08/13 07:23:01;;;;;;;8.83;5.40;;;;;;;26.46;100.00;97119.84;5093813;28;20276;-82
2021/08/13 07:25:28;;;;;;;6.17;5.60;;;;;;;26.77;100.00;97134.78;5093690;28;20203;-83
2021/08/13 07:27:55;;;;;;;7.47;5.87;;;;;;;26.96;100.00;97138.13;5093692;28;20199;-83
2021/08/13 07:30:23;;;;;;;9.40;6.77;;;;;;;26.50;100.00;97131.84;5093682;28;20677;-83
2021/08/13 07:32:51;;;;;;;6.27;5.50;;;;;;;26.48;100.00;97131.25;5093696;28;20200;-83
2021/08/13 07:35:18;;;;;;;7.70;6.90;;;;;;;26.61;100.00;97129.38;5093558;28;20204;-83
2021/08/13 07:37:46;;;;;;;6.70;6.10;;;;;;;26.55;100.00;97129.25;5093584;28;20196;-83
2021/08/13 07:40:13;;;;;;;6.67;6.07;;;;;;;26.59;100.00;97134.16;5093755;28;20196;-82
2021/08/13 07:42:41;;;;;;;7.45;6.75;;;;;;;27.03;100.00;97133.38;5093640;28;20303;-83
2021/08/13 07:45:10;;;;;;;6.17;5.63;;;;;;;27.10;100.00;97144.03;5094018;28;20227;-83
2021/08/13 07:47:39;;;;;;;6.55;5.95;;;;;;;27.18;100.00;97146.34;5093613;28;20589;-82
2021/08/13 07:50:09;;;;;;;6.85;6.15;;;;;;;27.24;100.00;97148.09;5093417;28;20253;-82
2021/08/13 07:52:37;;;;;;;7.53;6.88;;;;;;;27.33;100.00;97144.97;5080563;28;20199;-83
2021/08/13 07:55:04;;;;;;;6.22;5.63;;;;;;;27.43;100.00;97147.84;5063962;28;20244;-83
2021/08/13 07:57:32;;;;;;;6.38;5.82;;;;;;;27.71;100.00;97142.41;5073179;28;20276;-82
2021/08/13 07:59:59;;;;;;;7.25;5.70;;;;;;;27.87;100.00;97140.75;5073527;28;20283;-83
2021/08/13 08:02:26;;;;;;;6.63;6.03;;;;;;;27.93;100.00;97147.06;5072629;28;20220;-82
2021/08/13 08:04:53;;;;;;;7.22;5.60;;;;;;;27.88;100.00;97152.38;5072621;28;20197;-82
2021/08/13 08:07:22;;;;;;;6.97;6.25;;;;;;;27.69;100.00;97154.50;5072635;28;20201;-81
2021/08/13 08:09:49;;;;;;;6.30;5.63;;;;;;;27.30;100.00;97151.72;5073080;28;20193;-82
2021/08/13 08:12:16;;;;;;;5.57;5.10;;;;;;;27.69;100.00;97149.91;5072633;28;20201;-83
2021/08/13 08:14:44;;;;;;;9.90;6.53;;;;;;;27.68;100.00;97159.09;5072758;28;20208;-83
2021/08/13 08:17:11;;;;;;;5.95;5.40;;;;;;;27.45;100.00;97159.25;5072843;28;20682;-83
2021/08/13 08:19:38;;;;;;;6.00;5.32;;;;;;;27.23;100.00;97157.25;5072982;28;20200;-81
2021/08/13 08:22:05;;;;;;;5.22;4.82;;;;;;;27.02;100.00;97156.03;5072628;28;20239;-82
2021/08/13 08:24:34;;;;;;;5.88;5.38;;;;;;;27.74;100.00;97160.81;5072257;28;20197;-82
2021/08/13 08:27:01;;;;;;;6.10;5.47;;;;;;;28.34;100.00;97153.84;5072290;28;20748;-82
2021/08/13 08:29:28;;;;;;;4.93;4.50;;;;;;;28.55;100.00;97157.66;5072471;28;20193;-81
2021/08/13 08:31:56;;;;;;;4.75;4.35;;;;;;;28.80;100.00;97156.31;5072441;28;20198;-82
2021/08/13 08:34:23;;;;;;;6.75;4.82;;;;;;;28.90;100.00;97165.38;5072482;28;20708;-82
2021/08/13 08:36:50;;;;;;;7.25;5.10;;;;;;;27.85;100.00;97163.66;5072468;28;20223;-82
2021/08/13 08:39:17;;;;;;;5.28;4.88;;;;;;;27.21;100.00;97151.28;5072510;28;20197;-82
2021/08/13 08:41:46;;;;;;;7.18;5.53;;;;;;;28.00;100.00;97155.81;5072356;28;20619;-82
2021/08/13 08:44:13;;;;;;;5.63;5.13;;;;;;;28.41;100.00;97156.41;5072110;28;20192;-82
2021/08/13 08:46:41;;;;;;;6.35;5.22;;;;;;;29.01;100.00;97152.78;5072366;28;20519;-82
2021/08/13 08:49:10;;;;;;;5.18;4.78;;;;;;;29.01;100.00;97169.03;5072183;28;20204;-82
2021/08/13 08:51:38;;;;;;;4.80;4.40;;;;;;;29.25;100.00;97161.41;5072137;28;20200;-82
2021/08/13 08:54:06;;;;;;;5.00;4.60;;;;;;;28.64;100.00;97161.53;5071880;28;20225;-81
2021/08/13 08:56:33;;;;;;;5.05;4.65;;;;;;;28.92;100.00;97159.69;5072018;28;20254;-83
2021/08/13 08:59:03;;;;;;;4.63;4.20;;;;;;;29.24;100.00;97165.22;5072237;28;20197;-81
2021/08/13 09:01:30;;;;;;;8.32;7.43;;;;;;;29.38;100.00;97158.28;5071731;28;20231;-82
2021/08/13 09:03:58;;;;;;;5.40;4.85;;;;;;;28.98;100.00;97163.28;5072129;28;20275;-82
2021/08/13 09:06:25;;;;;;;5.18;4.28;;;;;;;29.05;100.00;97159.31;5071670;28;20607;-83
2021/08/13 09:08:53;;;;;;;5.10;4.70;;;;;;;29.33;100.00;97155.53;5071720;28;20577;-83
2021/08/13 09:11:20;;;;;;;5.75;5.25;;;;;;;29.38;100.00;97161.00;5071910;28;20200;-82
2021/08/13 09:14:03;;;;;;;5.80;5.10;;;;;;;29.82;100.00;97165.44;5071727;28;20193;-83
2021/08/13 09:16:31;;;;;;;4.53;4.22;;;;;;;29.44;100.00;97159.13;5071797;28;20189;-83
2021/08/13 09:19:00;;;;;;;6.03;5.00;;;;;;;29.93;100.00;97156.31;5072267;28;20228;-83
2021/08/13 09:21:28;;;;;;;5.40;4.53;;;;;;;29.30;100.00;97156.03;5071803;28;20225;-83
2021/08/13 09:23:59;;;;;;;5.57;5.10;;;;;;;28.74;100.00;97149.22;5071790;28;20196;-83
2021/08/13 09:26:28;;;;;;;4.40;4.00;;;;;;;29.07;100.00;97156.38;5071732;28;20192;-81
2021/08/13 09:28:57;;;;;;;5.63;4.00;;;;;;;29.00;100.00;97151.16;5071547;28;20197;-82
2021/08/13 09:31:29;;;;;;;5.43;4.53;;;;;;;29.27;100.00;97148.47;5071483;28;20205;-83
2021/08/13 09:33:58;;;;;;;4.82;4.43;;;;;;;29.43;100.00;97151.28;5071514;28;20185;-82
2021/08/13 09:36:27;;;;;;;5.93;5.32;;;;;;;29.83;100.00;97157.06;5071623;28;20232;-82
2021/08/13 09:39:04;;;;;;;6.10;4.78;;;;;;;30.10;100.00;97145.28;5071481;28;20250;-83
2021/08/13 09:41:43;;;;;;;4.72;4.43;;;;;;;29.99;100.00;97152.53;5071609;28;20205;-83
2021/08/13 09:44:10;;;;;;;4.95;4.55;;;;;;;29.82;100.00;97150.03;5071831;28;20185;-84
2021/08/13 09:46:54;;;;;;;6.32;5.00;;;;;;;30.16;100.00;97138.81;5071386;28;20208;-82
2021/08/13 09:49:21;;;;;;;5.40;5.00;;;;;;;29.81;100.00;97152.97;5071581;28;20185;-83
2021/08/13 09:51:49;;;;;;;4.93;4.53;;;;;;;30.17;100.00;97142.34;5071379;28;20205;-83
2021/08/13 09:54:16;;;;;;;5.28;4.43;;;;;;;30.33;100.00;97135.97;5071405;28;20237;-83
2021/08/13 09:56:43;;;;;;;6.07;4.47;;;;;;;30.03;100.00;97133.88;5071104;28;20197;-84
2021/08/13 09:59:13;;;;;;;6.22;4.55;;;;;;;30.14;100.00;97140.19;5071449;28;20197;-84
2021/08/13 10:01:44;;;;;;;5.38;4.88;;;;;;;30.56;100.00;97142.84;5071247;28;20231;-83
2021/08/13 10:04:12;;;;;;;7.60;5.07;;;;;;;29.45;100.00;97147.25;5071163;28;20240;-82
2021/08/13 10:06:40;;;;;;;5.55;5.05;;;;;;;28.76;100.00;97153.31;5071607;28;20205;-82
2021/08/13 10:09:20;;;;;;;5.00;4.60;;;;;;;28.75;100.00;97150.84;5071557;28;20586;-83
2021/08/13 10:11:57;;;;;;;5.18;4.72;;;;;;;29.49;100.00;97145.66;5071253;28;20196;-84
2021/08/13 10:14:29;;;;;;;4.60;4.18;;;;;;;29.81;100.00;97148.38;5071335;28;20200;-84
2021/08/13 10:17:09;;;;;;;5.40;5.00;;;;;;;29.79;100.00;97155.97;5071149;28;20193;-83
2021/08/13 10:19:38;;;;;;;5.05;4.57;;;;;;;30.13;100.00;97146.66;5073623;28;20208;-83
2021/08/13 10:22:07;;;;;;;5.18;4.78;;;;;;;30.47;100.00;97142.53;5074834;28;20962;-83
2021/08/13 10:24:36;;;;;;;4.93;4.45;;;;;;;30.25;100.00;97144.59;5074853;28;20197;-83
2021/08/13 10:27:04;;;;;;;4.97;4.63;;;;;;;29.78;100.00;97157.00;5074599;28;20203;-83
2021/08/13 10:29:32;;;;;;;5.32;4.82;;;;;;;29.44;100.00;97144.78;5075288;28;20207;-84
2021/08/13 10:32:00;;;;;;;7.45;5.28;;;;;;;28.99;100.00;97145.97;5074877;28;20197;-82
2021/08/13 10:34:30;;;;;;;7.38;4.82;;;;;;;28.72;100.00;97141.38;5074430;28;20201;-83
2021/08/13 10:36:58;;;;;;;5.35;4.60;;;;;;;28.79;100.00;97143.88;5074445;28;21003;-82
2021/08/13 10:39:30;;;;;;;5.35;4.35;;;;;;;29.36;100.00;97141.47;5074628;28;20203;-83
2021/08/13 10:42:01;;;;;;;5.95;4.50;;;;;;;29.47;100.00;97150.50;5074163;28;20210;-82
2021/08/13 10:44:32;;;;;;;4.72;4.32;;;;;;;29.81;100.00;97147.56;5074820;28;20189;-83
2021/08/13 10:47:02;;;;;;;5.10;4.63;;;;;;;29.55;100.00;97147.34;5074613;28;20250;-84
2021/08/13 10:49:30;;;;;;;5.43;5.03;;;;;;;29.37;100.00;97142.28;5074466;28;20208;-83
2021/08/13 10:52:02;;;;;;;5.47;4.97;;;;;;;29.59;100.00;97134.94;5074201;28;20211;-82
2021/08/13 10:54:40;;;;;;;5.35;4.85;;;;;;;29.79;100.00;97126.16;5073788;28;20237;-83
2021/08/13 10:57:07;;;;;;;5.38;4.40;;;;;;;29.72;100.00;97122.84;5074180;28;20200;-82
2021/08/13 10:59:54;;;;;;;5.32;4.30;;;;;;;29.25;100.00;97131.63;5074298;28;20197;-83
2021/08/13 11:02:22;;;;;;;5.78;4.80;;;;;;;29.11;100.00;97131.25;5074111;28;20236;-82
2021/08/13 11:04:52;;;;;;;5.07;4.60;;;;;;;29.19;100.00;97129.13;5074469;28;20196;-82
2021/08/13 11:07:59;;;;;;;5.20;4.68;;;;;;;29.17;100.00;97129.41;5073925;28;20204;-82
2021/08/13 11:10:59;;;;;;;5.85;5.35;;;;;;;29.22;100.00;97125.91;5074070;28;20189;-83
2021/08/13 11:13:27;;;;;;;6.70;4.53;;;;;;;29.58;100.00;97127.03;5074042;28;20185;-83
2021/08/13 11:15:55;;;;;;;4.78;4.47;;;;;;;30.20;100.00;97115.56;5074211;28;20225;-81
2021/08/13 11:18:32;;;;;;;5.70;5.10;;;;;;;30.04;100.00;97124.69;5073856;28;20200;-83
2021/08/13 11:21:01;;;;;;;5.63;4.35;;;;;;;30.41;100.00;97118.38;5073865;28;20185;-83
2021/08/13 11:23:29;;;;;;;5.00;4.60;;;;;;;30.40;100.00;97112.13;5073483;28;20224;-84
2021/08/13 11:25:56;;;;;;;6.88;4.75;;;;;;;30.59;100.00;97107.06;5074055;28;20201;-82
2021/08/13 11:28:25;;;;;;;4.85;4.45;;;;;;;30.28;100.00;97109.66;5073601;28;20232;-83
2021/08/13 11:30:54;;;;;;;5.78;4.82;;;;;;;30.03;100.00;97107.59;5073581;28;20201;-83